sensor_id;sensor_type;location;lat;lon;timestamp;P1;durP1;ratioP1;P2;durP2;ratioP2
74658;SDS011;63186;51.204;6.536;2023-07-29T00:01:10;4.33;;;1.97;;
74658;SDS011;63186;51.204;6.536;2023-07-29T00:03:35;3.63;;;1.87;;
74658;SDS011;63186;51.204;6.536;2023-07-29T00:06:01;4.93;;;2.13;;
74658;SDS011;63186;51.204;6.536;2023-07-29T00:08:26;3.93;;;2.03;;
74658;SDS011;63186;51.204;6.536;2023-07-29T00:10:51;3.90;;;1.87;;
74658;SDS011;63186;51.204;6.536;2023-07-29T00:13:17;4.97;;;2.15;;
74658;SDS011;63186;51.204;6.536;2023-07-29T00:15:42;6.13;;;2.20;;
74658;SDS011;63186;51.204;6.536;2023-07-29T00:18:07;5.13;;;2.20;;
74658;SDS011;63186;51.204;6.536;2023-07-29T00:20:32;4.70;;;2.10;;
74658;SDS011;63186;51.204;6.536;2023-07-29T00:22:58;6.37;;;2.00;;
74658;SDS011;63186;51.204;6.536;2023-07-29T00:25:24;7.40;;;2.25;;
74658;SDS011;63186;51.204;6.536;2023-07-29T00:27:49;5.05;;;2.30;;
74658;SDS011;63186;51.204;6.536;2023-07-29T00:30:14;4.73;;;2.40;;
74658;SDS011;63186;51.204;6.536;2023-07-29T00:32:40;7.43;;;2.07;;
74658;SDS011;63186;51.204;6.536;2023-07-29T00:35:05;5.40;;;2.20;;
74658;SDS011;63186;51.204;6.536;2023-07-29T00:37:31;6.68;;;2.10;;
74658;SDS011;63186;51.204;6.536;2023-07-29T00:39:56;4.50;;;1.93;;
74658;SDS011;63186;51.204;6.536;2023-07-29T00:42:23;4.53;;;2.25;;
74658;SDS011;63186;51.204;6.536;2023-07-29T00:44:48;5.38;;;2.30;;
74658;SDS011;63186;51.204;6.536;2023-07-29T00:47:13;3.97;;;2.00;;
74658;SDS011;63186;51.204;6.536;2023-07-29T00:49:40;8.40;;;2.40;;
74658;SDS011;63186;51.204;6.536;2023-07-29T00:52:06;8.10;;;2.47;;
74658;SDS011;63186;51.204;6.536;2023-07-29T00:54:31;5.07;;;2.30;;
74658;SDS011;63186;51.204;6.536;2023-07-29T00:56:57;6.50;;;2.38;;
74658;SDS011;63186;51.204;6.536;2023-07-29T00:59:22;6.50;;;2.30;;
74658;SDS011;63186;51.204;6.536;2023-07-29T01:01:47;5.05;;;2.13;;
74658;SDS011;63186;51.204;6.536;2023-07-29T01:04:13;5.45;;;2.30;;
74658;SDS011;63186;51.204;6.536;2023-07-29T01:06:41;6.07;;;2.30;;
74658;SDS011;63186;51.204;6.536;2023-07-29T01:09:35;5.82;;;2.33;;
74658;SDS011;63186;51.204;6.536;2023-07-29T01:12:23;8.52;;;2.15;;
74658;SDS011;63186;51.204;6.536;2023-07-29T01:15:01;5.00;;;2.22;;
74658;SDS011;63186;51.204;6.536;2023-07-29T01:20:32;5.05;;;2.08;;
74658;SDS011;63186;51.204;6.536;2023-07-29T01:22:59;7.18;;;2.45;;
74658;SDS011;63186;51.204;6.536;2023-07-29T01:25:24;4.97;;;2.15;;
74658;SDS011;63186;51.204;6.536;2023-07-29T01:27:50;6.00;;;2.17;;
74658;SDS011;63186;51.204;6.536;2023-07-29T01:30:16;6.65;;;2.63;;
74658;SDS011;63186;51.204;6.536;2023-07-29T01:32:43;6.10;;;2.60;;
74658;SDS011;63186;51.204;6.536;2023-07-29T01:38:05;7.75;;;2.35;;
74658;SDS011;63186;51.204;6.536;2023-07-29T01:40:34;6.13;;;2.60;;
74658;SDS011;63186;51.204;6.536;2023-07-29T01:43:00;4.00;;;1.95;;
74658;SDS011;63186;51.204;6.536;2023-07-29T01:45:26;5.50;;;2.50;;
74658;SDS011;63186;51.204;6.536;2023-07-29T01:47:51;7.03;;;2.23;;
74658;SDS011;63186;51.204;6.536;2023-07-29T01:50:16;5.28;;;2.42;;
74658;SDS011;63186;51.204;6.536;2023-07-29T01:52:42;8.00;;;2.72;;
74658;SDS011;63186;51.204;6.536;2023-07-29T01:55:07;7.50;;;2.73;;
74658;SDS011;63186;51.204;6.536;2023-07-29T01:57:33;6.45;;;2.28;;
74658;SDS011;63186;51.204;6.536;2023-07-29T01:59:58;5.37;;;2.20;;
74658;SDS011;63186;51.204;6.536;2023-07-29T02:02:24;7.10;;;2.47;;
74658;SDS011;63186;51.204;6.536;2023-07-29T02:04:49;4.40;;;2.00;;
74658;SDS011;63186;51.204;6.536;2023-07-29T02:07:16;5.15;;;2.33;;
74658;SDS011;63186;51.204;6.536;2023-07-29T02:09:42;7.20;;;2.67;;
74658;SDS011;63186;51.204;6.536;2023-07-29T02:12:07;5.87;;;2.37;;
74658;SDS011;63186;51.204;6.536;2023-07-29T02:14:33;5.13;;;2.35;;
74658;SDS011;63186;51.204;6.536;2023-07-29T02:16:58;4.78;;;2.20;;
74658;SDS011;63186;51.204;6.536;2023-07-29T02:19:23;6.73;;;2.43;;
74658;SDS011;63186;51.204;6.536;2023-07-29T02:21:48;6.83;;;2.87;;
74658;SDS011;63186;51.204;6.536;2023-07-29T02:24:14;5.50;;;2.10;;
74658;SDS011;63186;51.204;6.536;2023-07-29T02:26:39;5.80;;;2.20;;
74658;SDS011;63186;51.204;6.536;2023-07-29T02:29:04;6.30;;;2.40;;
74658;SDS011;63186;51.204;6.536;2023-07-29T02:31:29;5.77;;;2.40;;
74658;SDS011;63186;51.204;6.536;2023-07-29T02:33:55;6.45;;;2.80;;
74658;SDS011;63186;51.204;6.536;2023-07-29T02:36:20;6.85;;;2.72;;
74658;SDS011;63186;51.204;6.536;2023-07-29T02:38:46;8.90;;;3.15;;
74658;SDS011;63186;51.204;6.536;2023-07-29T02:41:11;5.78;;;2.47;;
74658;SDS011;63186;51.204;6.536;2023-07-29T02:43:38;5.70;;;2.60;;
74658;SDS011;63186;51.204;6.536;2023-07-29T02:46:03;7.40;;;2.72;;
74658;SDS011;63186;51.204;6.536;2023-07-29T02:48:29;7.07;;;2.35;;
74658;SDS011;63186;51.204;6.536;2023-07-29T02:50:55;7.20;;;2.70;;
74658;SDS011;63186;51.204;6.536;2023-07-29T02:53:21;6.13;;;2.67;;
74658;SDS011;63186;51.204;6.536;2023-07-29T02:55:47;6.45;;;2.53;;
74658;SDS011;63186;51.204;6.536;2023-07-29T02:58:12;5.40;;;2.80;;
74658;SDS011;63186;51.204;6.536;2023-07-29T03:00:38;8.73;;;3.10;;
74658;SDS011;63186;51.204;6.536;2023-07-29T03:03:06;7.13;;;2.60;;
74658;SDS011;63186;51.204;6.536;2023-07-29T03:05:32;7.10;;;3.00;;
74658;SDS011;63186;51.204;6.536;2023-07-29T03:07:57;5.07;;;2.57;;
74658;SDS011;63186;51.204;6.536;2023-07-29T03:10:23;7.88;;;3.10;;
74658;SDS011;63186;51.204;6.536;2023-07-29T03:12:48;6.00;;;2.88;;
74658;SDS011;63186;51.204;6.536;2023-07-29T03:15:13;7.80;;;2.77;;
74658;SDS011;63186;51.204;6.536;2023-07-29T03:17:39;8.27;;;3.13;;
74658;SDS011;63186;51.204;6.536;2023-07-29T03:20:04;6.37;;;2.73;;
74658;SDS011;63186;51.204;6.536;2023-07-29T03:22:30;7.05;;;3.10;;
74658;SDS011;63186;51.204;6.536;2023-07-29T03:24:55;6.05;;;2.83;;
74658;SDS011;63186;51.204;6.536;2023-07-29T03:27:21;5.43;;;2.53;;
74658;SDS011;63186;51.204;6.536;2023-07-29T03:29:46;6.80;;;3.17;;
74658;SDS011;63186;51.204;6.536;2023-07-29T03:32:11;8.30;;;2.87;;
74658;SDS011;63186;51.204;6.536;2023-07-29T03:34:36;6.20;;;2.93;;
74658;SDS011;63186;51.204;6.536;2023-07-29T03:37:02;7.53;;;2.95;;
74658;SDS011;63186;51.204;6.536;2023-07-29T03:39:27;8.48;;;3.13;;
74658;SDS011;63186;51.204;6.536;2023-07-29T03:41:52;8.10;;;3.57;;
74658;SDS011;63186;51.204;6.536;2023-07-29T03:44:18;6.87;;;3.13;;
74658;SDS011;63186;51.204;6.536;2023-07-29T03:46:43;7.22;;;3.15;;
74658;SDS011;63186;51.204;6.536;2023-07-29T03:49:09;6.97;;;3.13;;
74658;SDS011;63186;51.204;6.536;2023-07-29T03:51:35;6.78;;;3.25;;
74658;SDS011;63186;51.204;6.536;2023-07-29T03:54:00;6.77;;;3.30;;
74658;SDS011;63186;51.204;6.536;2023-07-29T03:56:25;7.35;;;3.28;;
74658;SDS011;63186;51.204;6.536;2023-07-29T03:58:51;7.63;;;3.40;;
74658;SDS011;63186;51.204;6.536;2023-07-29T04:01:17;7.30;;;3.92;;
74658;SDS011;63186;51.204;6.536;2023-07-29T04:03:42;8.07;;;4.03;;
74658;SDS011;63186;51.204;6.536;2023-07-29T04:06:08;6.93;;;3.60;;
74658;SDS011;63186;51.204;6.536;2023-07-29T04:08:33;7.97;;;3.17;;
74658;SDS011;63186;51.204;6.536;2023-07-29T04:10:58;6.83;;;3.40;;
74658;SDS011;63186;51.204;6.536;2023-07-29T04:13:24;8.13;;;3.00;;
74658;SDS011;63186;51.204;6.536;2023-07-29T04:15:49;7.55;;;3.85;;
74658;SDS011;63186;51.204;6.536;2023-07-29T04:18:14;6.73;;;3.10;;
74658;SDS011;63186;51.204;6.536;2023-07-29T04:20:40;6.80;;;3.40;;
74658;SDS011;63186;51.204;6.536;2023-07-29T04:23:05;6.63;;;3.50;;
74658;SDS011;63186;51.204;6.536;2023-07-29T04:25:30;7.63;;;3.33;;
74658;SDS011;63186;51.204;6.536;2023-07-29T04:27:55;7.33;;;3.20;;
74658;SDS011;63186;51.204;6.536;2023-07-29T04:30:22;9.60;;;3.10;;
74658;SDS011;63186;51.204;6.536;2023-07-29T04:32:48;6.78;;;2.97;;
74658;SDS011;63186;51.204;6.536;2023-07-29T04:35:13;6.30;;;2.83;;
74658;SDS011;63186;51.204;6.536;2023-07-29T04:37:39;6.93;;;3.25;;
74658;SDS011;63186;51.204;6.536;2023-07-29T04:40:05;8.50;;;3.03;;
74658;SDS011;63186;51.204;6.536;2023-07-29T04:42:31;7.70;;;3.60;;
74658;SDS011;63186;51.204;6.536;2023-07-29T04:44:56;6.20;;;3.43;;
74658;SDS011;63186;51.204;6.536;2023-07-29T04:47:21;7.23;;;3.47;;
74658;SDS011;63186;51.204;6.536;2023-07-29T04:49:46;7.17;;;3.43;;
74658;SDS011;63186;51.204;6.536;2023-07-29T04:52:12;8.07;;;3.40;;
74658;SDS011;63186;51.204;6.536;2023-07-29T04:54:37;6.18;;;3.20;;
74658;SDS011;63186;51.204;6.536;2023-07-29T04:57:03;8.63;;;3.13;;
74658;SDS011;63186;51.204;6.536;2023-07-29T04:59:28;7.95;;;2.95;;
74658;SDS011;63186;51.204;6.536;2023-07-29T05:01:53;7.13;;;3.05;;
74658;SDS011;63186;51.204;6.536;2023-07-29T05:04:19;5.23;;;2.30;;
74658;SDS011;63186;51.204;6.536;2023-07-29T05:06:44;6.40;;;2.53;;
74658;SDS011;63186;51.204;6.536;2023-07-29T05:09:16;5.17;;;2.00;;
74658;SDS011;63186;51.204;6.536;2023-07-29T05:11:45;5.25;;;2.47;;
74658;SDS011;63186;51.204;6.536;2023-07-29T05:14:12;5.07;;;2.17;;
74658;SDS011;63186;51.204;6.536;2023-07-29T05:16:38;5.43;;;2.40;;
74658;SDS011;63186;51.204;6.536;2023-07-29T05:19:03;6.33;;;2.13;;
74658;SDS011;63186;51.204;6.536;2023-07-29T05:21:29;4.63;;;1.85;;
74658;SDS011;63186;51.204;6.536;2023-07-29T05:23:54;4.40;;;2.08;;
74658;SDS011;63186;51.204;6.536;2023-07-29T05:26:21;4.80;;;2.10;;
74658;SDS011;63186;51.204;6.536;2023-07-29T05:28:47;9.20;;;3.08;;
74658;SDS011;63186;51.204;6.536;2023-07-29T05:31:12;4.57;;;1.80;;
74658;SDS011;63186;51.204;6.536;2023-07-29T05:33:38;6.17;;;2.03;;
74658;SDS011;63186;51.204;6.536;2023-07-29T05:36:03;4.93;;;2.37;;
74658;SDS011;63186;51.204;6.536;2023-07-29T05:38:30;4.95;;;2.17;;
74658;SDS011;63186;51.204;6.536;2023-07-29T05:40:55;7.37;;;2.33;;
74658;SDS011;63186;51.204;6.536;2023-07-29T05:43:20;4.90;;;2.00;;
74658;SDS011;63186;51.204;6.536;2023-07-29T05:45:45;6.30;;;2.83;;
74658;SDS011;63186;51.204;6.536;2023-07-29T05:48:11;6.17;;;2.43;;
74658;SDS011;63186;51.204;6.536;2023-07-29T05:50:36;6.23;;;2.63;;
74658;SDS011;63186;51.204;6.536;2023-07-29T05:53:01;8.90;;;2.40;;
74658;SDS011;63186;51.204;6.536;2023-07-29T05:55:26;4.70;;;2.20;;
74658;SDS011;63186;51.204;6.536;2023-07-29T05:57:52;5.00;;;2.00;;
74658;SDS011;63186;51.204;6.536;2023-07-29T06:00:17;3.33;;;1.87;;
74658;SDS011;63186;51.204;6.536;2023-07-29T06:02:42;4.33;;;1.87;;
74658;SDS011;63186;51.204;6.536;2023-07-29T06:05:08;4.03;;;1.60;;
74658;SDS011;63186;51.204;6.536;2023-07-29T06:07:33;5.88;;;1.60;;
74658;SDS011;63186;51.204;6.536;2023-07-29T06:09:59;4.00;;;1.70;;
74658;SDS011;63186;51.204;6.536;2023-07-29T06:12:25;3.63;;;1.50;;
74658;SDS011;63186;51.204;6.536;2023-07-29T06:14:50;4.88;;;1.98;;
74658;SDS011;63186;51.204;6.536;2023-07-29T06:17:15;4.53;;;1.60;;
74658;SDS011;63186;51.204;6.536;2023-07-29T06:19:41;4.07;;;1.80;;
74658;SDS011;63186;51.204;6.536;2023-07-29T06:22:06;4.57;;;1.67;;
74658;SDS011;63186;51.204;6.536;2023-07-29T06:24:31;4.60;;;1.90;;
74658;SDS011;63186;51.204;6.536;2023-07-29T06:26:57;2.58;;;1.27;;
74658;SDS011;63186;51.204;6.536;2023-07-29T06:29:23;3.20;;;1.42;;
74658;SDS011;63186;51.204;6.536;2023-07-29T06:31:48;5.30;;;1.63;;
74658;SDS011;63186;51.204;6.536;2023-07-29T06:34:13;5.15;;;1.83;;
74658;SDS011;63186;51.204;6.536;2023-07-29T06:36:39;4.23;;;1.90;;
74658;SDS011;63186;51.204;6.536;2023-07-29T06:39:04;7.80;;;2.30;;
74658;SDS011;63186;51.204;6.536;2023-07-29T06:41:29;3.83;;;1.63;;
74658;SDS011;63186;51.204;6.536;2023-07-29T06:43:55;6.18;;;2.00;;
74658;SDS011;63186;51.204;6.536;2023-07-29T06:46:21;5.10;;;1.90;;
74658;SDS011;63186;51.204;6.536;2023-07-29T06:48:46;3.95;;;1.60;;
74658;SDS011;63186;51.204;6.536;2023-07-29T06:51:11;6.60;;;1.90;;
74658;SDS011;63186;51.204;6.536;2023-07-29T06:53:37;4.93;;;1.52;;
74658;SDS011;63186;51.204;6.536;2023-07-29T06:56:02;5.17;;;1.63;;
74658;SDS011;63186;51.204;6.536;2023-07-29T06:58:28;6.38;;;1.70;;
74658;SDS011;63186;51.204;6.536;2023-07-29T07:00:53;3.58;;;1.80;;
74658;SDS011;63186;51.204;6.536;2023-07-29T07:03:18;4.97;;;1.67;;
74658;SDS011;63186;51.204;6.536;2023-07-29T07:05:44;3.30;;;1.50;;
74658;SDS011;63186;51.204;6.536;2023-07-29T07:08:09;4.23;;;1.80;;
74658;SDS011;63186;51.204;6.536;2023-07-29T07:10:34;4.63;;;1.60;;
74658;SDS011;63186;51.204;6.536;2023-07-29T07:12:59;5.57;;;1.60;;
74658;SDS011;63186;51.204;6.536;2023-07-29T07:15:25;2.15;;;1.30;;
74658;SDS011;63186;51.204;6.536;2023-07-29T07:17:50;3.53;;;1.50;;
74658;SDS011;63186;51.204;6.536;2023-07-29T07:20:16;2.75;;;1.27;;
74658;SDS011;63186;51.204;6.536;2023-07-29T07:22:41;2.77;;;1.23;;
74658;SDS011;63186;51.204;6.536;2023-07-29T07:25:07;3.17;;;1.40;;
74658;SDS011;63186;51.204;6.536;2023-07-29T07:27:32;3.35;;;1.20;;
74658;SDS011;63186;51.204;6.536;2023-07-29T07:29:58;1.35;;;0.90;;
74658;SDS011;63186;51.204;6.536;2023-07-29T07:32:23;2.20;;;0.93;;
74658;SDS011;63186;51.204;6.536;2023-07-29T07:34:48;1.93;;;1.00;;
74658;SDS011;63186;51.204;6.536;2023-07-29T07:37:13;3.30;;;1.10;;
74658;SDS011;63186;51.204;6.536;2023-07-29T07:39:39;1.97;;;0.90;;
74658;SDS011;63186;51.204;6.536;2023-07-29T07:42:04;2.37;;;1.10;;
74658;SDS011;63186;51.204;6.536;2023-07-29T07:44:30;2.97;;;1.20;;
74658;SDS011;63186;51.204;6.536;2023-07-29T07:46:55;2.80;;;1.13;;
74658;SDS011;63186;51.204;6.536;2023-07-29T07:49:22;3.07;;;1.20;;
74658;SDS011;63186;51.204;6.536;2023-07-29T07:51:47;2.70;;;1.27;;
74658;SDS011;63186;51.204;6.536;2023-07-29T07:54:13;4.60;;;1.03;;
74658;SDS011;63186;51.204;6.536;2023-07-29T07:56:38;2.20;;;1.17;;
74658;SDS011;63186;51.204;6.536;2023-07-29T07:59:03;3.40;;;1.00;;
74658;SDS011;63186;51.204;6.536;2023-07-29T08:01:33;4.23;;;1.37;;
74658;SDS011;63186;51.204;6.536;2023-07-29T08:04:00;2.72;;;1.10;;
74658;SDS011;63186;51.204;6.536;2023-07-29T08:06:26;1.83;;;1.00;;
74658;SDS011;63186;51.204;6.536;2023-07-29T08:08:51;1.87;;;0.90;;
74658;SDS011;63186;51.204;6.536;2023-07-29T08:11:16;1.47;;;1.00;;
74658;SDS011;63186;51.204;6.536;2023-07-29T08:13:41;2.00;;;0.93;;
74658;SDS011;63186;51.204;6.536;2023-07-29T08:16:07;1.67;;;1.03;;
74658;SDS011;63186;51.204;6.536;2023-07-29T08:18:32;3.97;;;1.10;;
74658;SDS011;63186;51.204;6.536;2023-07-29T08:20:58;1.37;;;0.80;;
74658;SDS011;63186;51.204;6.536;2023-07-29T08:23:29;4.85;;;1.58;;
74658;SDS011;63186;51.204;6.536;2023-07-29T08:26:00;2.05;;;1.00;;
74658;SDS011;63186;51.204;6.536;2023-07-29T08:30:53;2.50;;;0.88;;
74658;SDS011;63186;51.204;6.536;2023-07-29T08:33:18;1.77;;;0.80;;
74658;SDS011;63186;51.204;6.536;2023-07-29T08:35:44;4.90;;;1.03;;
74658;SDS011;63186;51.204;6.536;2023-07-29T08:38:09;2.20;;;1.00;;
74658;SDS011;63186;51.204;6.536;2023-07-29T08:40:34;1.33;;;0.90;;
74658;SDS011;63186;51.204;6.536;2023-07-29T08:45:35;1.67;;;1.10;;
74658;SDS011;63186;51.204;6.536;2023-07-29T08:48:02;1.48;;;0.70;;
74658;SDS011;63186;51.204;6.536;2023-07-29T08:50:32;3.45;;;1.20;;
74658;SDS011;63186;51.204;6.536;2023-07-29T08:52:57;2.45;;;1.30;;
74658;SDS011;63186;51.204;6.536;2023-07-29T08:55:24;3.78;;;1.10;;
74658;SDS011;63186;51.204;6.536;2023-07-29T08:57:49;1.67;;;0.97;;
74658;SDS011;63186;51.204;6.536;2023-07-29T09:00:15;1.83;;;1.00;;
74658;SDS011;63186;51.204;6.536;2023-07-29T09:02:40;1.35;;;0.85;;
74658;SDS011;63186;51.204;6.536;2023-07-29T09:05:05;3.17;;;0.80;;
74658;SDS011;63186;51.204;6.536;2023-07-29T09:07:31;1.38;;;0.80;;
74658;SDS011;63186;51.204;6.536;2023-07-29T09:09:59;1.95;;;1.00;;
74658;SDS011;63186;51.204;6.536;2023-07-29T09:12:24;2.17;;;0.90;;
74658;SDS011;63186;51.204;6.536;2023-07-29T09:14:52;1.77;;;0.93;;
74658;SDS011;63186;51.204;6.536;2023-07-29T09:17:19;1.92;;;0.90;;
74658;SDS011;63186;51.204;6.536;2023-07-29T09:19:50;3.25;;;1.10;;
74658;SDS011;63186;51.204;6.536;2023-07-29T09:22:19;1.42;;;0.60;;
74658;SDS011;63186;51.204;6.536;2023-07-29T09:24:45;2.30;;;1.10;;
74658;SDS011;63186;51.204;6.536;2023-07-29T09:27:25;1.70;;;0.80;;
74658;SDS011;63186;51.204;6.536;2023-07-29T09:29:52;2.08;;;1.00;;
74658;SDS011;63186;51.204;6.536;2023-07-29T09:32:18;1.88;;;0.88;;
74658;SDS011;63186;51.204;6.536;2023-07-29T09:34:44;4.00;;;1.25;;
74658;SDS011;63186;51.204;6.536;2023-07-29T09:37:12;1.57;;;0.80;;
74658;SDS011;63186;51.204;6.536;2023-07-29T09:39:43;2.40;;;0.95;;
74658;SDS011;63186;51.204;6.536;2023-07-29T09:42:11;2.28;;;1.10;;
74658;SDS011;63186;51.204;6.536;2023-07-29T09:44:42;1.30;;;0.90;;
74658;SDS011;63186;51.204;6.536;2023-07-29T09:47:07;2.50;;;1.10;;
74658;SDS011;63186;51.204;6.536;2023-07-29T09:49:34;3.80;;;1.17;;
74658;SDS011;63186;51.204;6.536;2023-07-29T09:52:01;2.70;;;1.10;;
74658;SDS011;63186;51.204;6.536;2023-07-29T09:54:29;2.67;;;1.30;;
74658;SDS011;63186;51.204;6.536;2023-07-29T09:56:55;2.70;;;0.88;;
74658;SDS011;63186;51.204;6.536;2023-07-29T09:59:22;3.17;;;2.35;;
74658;SDS011;63186;51.204;6.536;2023-07-29T10:01:48;4.60;;;0.98;;
74658;SDS011;63186;51.204;6.536;2023-07-29T10:04:14;2.67;;;1.10;;
74658;SDS011;63186;51.204;6.536;2023-07-29T10:06:41;1.98;;;0.90;;
74658;SDS011;63186;51.204;6.536;2023-07-29T10:09:07;1.52;;;0.90;;
74658;SDS011;63186;51.204;6.536;2023-07-29T10:11:33;2.60;;;1.20;;
74658;SDS011;63186;51.204;6.536;2023-07-29T10:14:00;2.53;;;1.00;;
74658;SDS011;63186;51.204;6.536;2023-07-29T10:16:26;2.13;;;0.90;;
74658;SDS011;63186;51.204;6.536;2023-07-29T10:18:52;1.83;;;1.20;;
74658;SDS011;63186;51.204;6.536;2023-07-29T10:21:19;3.22;;;1.20;;
74658;SDS011;63186;51.204;6.536;2023-07-29T10:23:47;1.25;;;0.75;;
74658;SDS011;63186;51.204;6.536;2023-07-29T10:26:18;1.35;;;0.93;;
74658;SDS011;63186;51.204;6.536;2023-07-29T10:28:46;2.58;;;1.10;;
74658;SDS011;63186;51.204;6.536;2023-07-29T10:31:13;1.83;;;0.85;;
74658;SDS011;63186;51.204;6.536;2023-07-29T10:33:41;1.45;;;0.80;;
74658;SDS011;63186;51.204;6.536;2023-07-29T10:36:07;1.90;;;0.93;;
74658;SDS011;63186;51.204;6.536;2023-07-29T10:38:33;2.72;;;1.10;;
74658;SDS011;63186;51.204;6.536;2023-07-29T10:40:58;2.78;;;1.00;;
74658;SDS011;63186;51.204;6.536;2023-07-29T10:43:36;2.40;;;1.05;;
74658;SDS011;63186;51.204;6.536;2023-07-29T10:46:14;3.95;;;1.00;;
74658;SDS011;63186;51.204;6.536;2023-07-29T10:54:03;1.75;;;0.90;;
74658;SDS011;63186;51.204;6.536;2023-07-29T10:56:35;3.20;;;1.00;;
74658;SDS011;63186;51.204;6.536;2023-07-29T10:59:31;1.75;;;1.02;;
74658;SDS011;63186;51.204;6.536;2023-07-29T11:01:59;2.53;;;1.00;;
74658;SDS011;63186;51.204;6.536;2023-07-29T11:09:42;4.32;;;1.27;;
74658;SDS011;63186;51.204;6.536;2023-07-29T11:15:03;1.65;;;0.90;;
74658;SDS011;63186;51.204;6.536;2023-07-29T11:17:29;2.03;;;1.08;;
74658;SDS011;63186;51.204;6.536;2023-07-29T11:19:57;2.45;;;1.05;;
74658;SDS011;63186;51.204;6.536;2023-07-29T11:22:25;4.50;;;1.20;;
74658;SDS011;63186;51.204;6.536;2023-07-29T11:24:51;2.33;;;1.03;;
74658;SDS011;63186;51.204;6.536;2023-07-29T11:27:16;2.73;;;1.20;;
74658;SDS011;63186;51.204;6.536;2023-07-29T11:29:41;3.63;;;1.10;;
74658;SDS011;63186;51.204;6.536;2023-07-29T11:32:06;3.73;;;1.30;;
74658;SDS011;63186;51.204;6.536;2023-07-29T11:34:32;2.55;;;1.00;;
74658;SDS011;63186;51.204;6.536;2023-07-29T11:36:57;2.00;;;1.03;;
74658;SDS011;63186;51.204;6.536;2023-07-29T11:39:23;2.33;;;1.10;;
74658;SDS011;63186;51.204;6.536;2023-07-29T11:41:48;2.97;;;1.23;;
74658;SDS011;63186;51.204;6.536;2023-07-29T11:44:16;3.80;;;1.10;;
74658;SDS011;63186;51.204;6.536;2023-07-29T11:46:42;2.60;;;1.05;;
74658;SDS011;63186;51.204;6.536;2023-07-29T11:49:08;1.10;;;0.82;;
74658;SDS011;63186;51.204;6.536;2023-07-29T11:51:33;2.47;;;0.98;;
74658;SDS011;63186;51.204;6.536;2023-07-29T11:53:59;2.30;;;1.20;;
74658;SDS011;63186;51.204;6.536;2023-07-29T11:56:25;2.35;;;0.90;;
74658;SDS011;63186;51.204;6.536;2023-07-29T11:58:51;1.77;;;1.00;;
74658;SDS011;63186;51.204;6.536;2023-07-29T12:01:16;2.90;;;1.20;;
74658;SDS011;63186;51.204;6.536;2023-07-29T12:03:42;2.67;;;1.00;;
74658;SDS011;63186;51.204;6.536;2023-07-29T12:06:08;1.65;;;0.95;;
74658;SDS011;63186;51.204;6.536;2023-07-29T12:08:34;1.40;;;0.93;;
74658;SDS011;63186;51.204;6.536;2023-07-29T12:10:59;2.63;;;1.40;;
74658;SDS011;63186;51.204;6.536;2023-07-29T12:13:25;2.87;;;1.20;;
74658;SDS011;63186;51.204;6.536;2023-07-29T12:15:50;2.30;;;1.25;;
74658;SDS011;63186;51.204;6.536;2023-07-29T12:18:15;5.45;;;1.42;;
74658;SDS011;63186;51.204;6.536;2023-07-29T12:20:41;2.38;;;1.23;;
74658;SDS011;63186;51.204;6.536;2023-07-29T12:23:06;3.40;;;1.30;;
74658;SDS011;63186;51.204;6.536;2023-07-29T12:25:33;3.85;;;1.15;;
74658;SDS011;63186;51.204;6.536;2023-07-29T12:28:07;2.50;;;1.20;;
74658;SDS011;63186;51.204;6.536;2023-07-29T12:30:32;2.30;;;1.00;;
74658;SDS011;63186;51.204;6.536;2023-07-29T12:32:58;2.78;;;1.30;;
74658;SDS011;63186;51.204;6.536;2023-07-29T12:35:24;3.13;;;1.20;;
74658;SDS011;63186;51.204;6.536;2023-07-29T12:37:58;3.10;;;1.15;;
74658;SDS011;63186;51.204;6.536;2023-07-29T12:40:26;1.48;;;0.93;;
74658;SDS011;63186;51.204;6.536;2023-07-29T12:42:52;2.13;;;1.20;;
74658;SDS011;63186;51.204;6.536;2023-07-29T12:45:18;2.92;;;1.25;;
74658;SDS011;63186;51.204;6.536;2023-07-29T12:47:44;3.35;;;1.27;;
74658;SDS011;63186;51.204;6.536;2023-07-29T12:50:09;4.25;;;1.45;;
74658;SDS011;63186;51.204;6.536;2023-07-29T12:52:35;2.67;;;1.15;;
74658;SDS011;63186;51.204;6.536;2023-07-29T12:55:00;2.70;;;1.23;;
74658;SDS011;63186;51.204;6.536;2023-07-29T12:57:25;3.03;;;1.33;;
74658;SDS011;63186;51.204;6.536;2023-07-29T12:59:51;3.57;;;1.40;;
74658;SDS011;63186;51.204;6.536;2023-07-29T13:02:16;2.50;;;1.17;;
74658;SDS011;63186;51.204;6.536;2023-07-29T13:04:41;3.23;;;1.20;;
74658;SDS011;63186;51.204;6.536;2023-07-29T13:07:06;2.67;;;1.20;;
74658;SDS011;63186;51.204;6.536;2023-07-29T13:09:32;3.25;;;1.55;;
74658;SDS011;63186;51.204;6.536;2023-07-29T13:11:57;3.03;;;1.10;;
74658;SDS011;63186;51.204;6.536;2023-07-29T13:14:22;3.40;;;1.30;;
74658;SDS011;63186;51.204;6.536;2023-07-29T13:16:48;1.95;;;1.00;;
74658;SDS011;63186;51.204;6.536;2023-07-29T13:19:13;2.10;;;1.10;;
74658;SDS011;63186;51.204;6.536;2023-07-29T13:21:38;2.90;;;1.23;;
74658;SDS011;63186;51.204;6.536;2023-07-29T13:24:03;4.27;;;1.50;;
74658;SDS011;63186;51.204;6.536;2023-07-29T13:26:29;4.90;;;1.40;;
74658;SDS011;63186;51.204;6.536;2023-07-29T13:28:54;4.75;;;1.58;;
74658;SDS011;63186;51.204;6.536;2023-07-29T13:31:20;3.33;;;1.38;;
74658;SDS011;63186;51.204;6.536;2023-07-29T13:33:46;2.78;;;1.40;;
74658;SDS011;63186;51.204;6.536;2023-07-29T13:36:11;3.90;;;1.23;;
74658;SDS011;63186;51.204;6.536;2023-07-29T13:38:36;2.60;;;1.33;;
74658;SDS011;63186;51.204;6.536;2023-07-29T13:41:02;3.30;;;1.20;;
74658;SDS011;63186;51.204;6.536;2023-07-29T13:43:27;3.60;;;1.40;;
74658;SDS011;63186;51.204;6.536;2023-07-29T13:45:53;2.43;;;1.10;;
74658;SDS011;63186;51.204;6.536;2023-07-29T13:48:18;2.20;;;1.03;;
74658;SDS011;63186;51.204;6.536;2023-07-29T13:50:44;3.60;;;1.38;;
74658;SDS011;63186;51.204;6.536;2023-07-29T13:53:10;3.83;;;1.40;;
74658;SDS011;63186;51.204;6.536;2023-07-29T13:55:35;2.90;;;1.40;;
74658;SDS011;63186;51.204;6.536;2023-07-29T13:58:01;3.30;;;1.30;;
74658;SDS011;63186;51.204;6.536;2023-07-29T14:00:26;3.00;;;1.40;;
74658;SDS011;63186;51.204;6.536;2023-07-29T14:02:52;3.05;;;1.48;;
74658;SDS011;63186;51.204;6.536;2023-07-29T14:05:17;4.40;;;1.67;;
74658;SDS011;63186;51.204;6.536;2023-07-29T14:07:42;5.73;;;2.07;;
74658;SDS011;63186;51.204;6.536;2023-07-29T14:10:07;3.30;;;1.47;;
74658;SDS011;63186;51.204;6.536;2023-07-29T14:12:33;2.63;;;1.40;;
74658;SDS011;63186;51.204;6.536;2023-07-29T14:14:59;3.85;;;1.35;;
74658;SDS011;63186;51.204;6.536;2023-07-29T14:17:24;3.88;;;1.92;;
74658;SDS011;63186;51.204;6.536;2023-07-29T14:19:49;2.50;;;1.30;;
74658;SDS011;63186;51.204;6.536;2023-07-29T14:22:15;3.13;;;1.40;;
74658;SDS011;63186;51.204;6.536;2023-07-29T14:24:40;3.07;;;1.53;;
74658;SDS011;63186;51.204;6.536;2023-07-29T14:27:05;3.00;;;1.30;;
74658;SDS011;63186;51.204;6.536;2023-07-29T14:29:31;2.75;;;1.30;;
74658;SDS011;63186;51.204;6.536;2023-07-29T14:31:56;4.93;;;1.45;;
74658;SDS011;63186;51.204;6.536;2023-07-29T14:34:22;3.20;;;1.20;;
74658;SDS011;63186;51.204;6.536;2023-07-29T14:36:47;2.07;;;1.03;;
74658;SDS011;63186;51.204;6.536;2023-07-29T14:39:12;1.87;;;1.03;;
74658;SDS011;63186;51.204;6.536;2023-07-29T14:41:38;1.57;;;1.00;;
74658;SDS011;63186;51.204;6.536;2023-07-29T14:44:03;9.13;;;1.77;;
74658;SDS011;63186;51.204;6.536;2023-07-29T14:46:28;2.70;;;1.17;;
74658;SDS011;63186;51.204;6.536;2023-07-29T14:48:54;3.20;;;1.40;;
74658;SDS011;63186;51.204;6.536;2023-07-29T14:51:19;3.53;;;1.20;;
74658;SDS011;63186;51.204;6.536;2023-07-29T14:53:44;2.95;;;1.00;;
74658;SDS011;63186;51.204;6.536;2023-07-29T14:56:10;2.57;;;1.10;;
74658;SDS011;63186;51.204;6.536;2023-07-29T14:58:35;4.65;;;1.55;;
74658;SDS011;63186;51.204;6.536;2023-07-29T15:01:00;2.70;;;1.00;;
74658;SDS011;63186;51.204;6.536;2023-07-29T15:03:26;2.97;;;1.15;;
74658;SDS011;63186;51.204;6.536;2023-07-29T15:05:51;6.28;;;1.20;;